Time;durP1;ratioP1;P1;durP2;ratioP2;P2;SDS_P1;SDS_P2;PMS_P1;PMS_P2;Temp;Humidity;BMP_temperature;BMP_pressure;BME280_temperature;BME280_humidity;BME280_pressure;Samples;Min_cycle;Max_cycle;Signal;HPM_P1;HPM_P2
2021/04/07 00:00:56;;;;;;;52.53;26.83;;;;;;;4.93;100.00;95373.44;4964761;28;20407;-62
2021/04/07 00:03:22;;;;;;;55.60;29.55;;;;;;;4.90;100.00;95374.94;4965382;28;20395;-62
2021/04/07 00:05:47;;;;;;;58.25;29.05;;;;;;;5.75;100.00;95505.69;4964477;28;20058;-63
2021/04/07 00:08:18;;;;;;;59.67;31.23;;;;;;;5.73;100.00;95519.00;4964744;28;20090;-61
2021/04/07 00:10:44;;;;;;;52.50;27.60;;;;;;;5.70;100.00;95506.03;4964543;28;20054;-61
2021/04/07 00:13:12;;;;;;;57.13;30.00;;;;;;;5.68;100.00;95505.59;4965092;28;20045;-60
2021/04/07 00:15:38;;;;;;;53.40;28.70;;;;;;;5.70;100.00;95500.53;4964468;28;20027;-61
2021/04/07 00:18:04;;;;;;;45.03;23.10;;;;;;;5.65;100.00;95509.09;4965625;28;20034;-60
2021/04/07 00:20:30;;;;;;;39.35;22.25;;;;;;;5.44;100.00;95484.16;4964652;28;20421;-60
2021/04/07 00:22:56;;;;;;;37.20;22.42;;;;;;;5.57;100.00;95518.44;4964062;28;20141;-60
2021/04/07 00:25:23;;;;;;;40.42;21.45;;;;;;;5.59;100.00;95508.66;4962877;28;20684;-61
2021/04/07 00:27:56;;;;;;;42.97;23.85;;;;;;;5.53;100.00;95507.41;4963194;28;20436;-63
2021/04/07 00:30:25;;;;;;;46.88;26.17;;;;;;;5.47;100.00;95513.63;4962625;28;20440;-61
2021/04/07 00:32:51;;;;;;;44.22;23.70;;;;;;;5.40;100.00;95525.31;4965127;28;20093;-60
2021/04/07 00:35:17;;;;;;;45.17;24.58;;;;;;;4.66;100.00;95414.63;4964513;28;20493;-62
2021/04/07 00:37:42;;;;;;;41.90;23.23;;;;;;;5.45;100.00;95524.19;4963438;28;20078;-62
2021/04/07 00:40:08;;;;;;;40.03;22.00;;;;;;;2.55;100.00;95082.38;4964351;28;20035;-61
2021/04/07 00:42:36;;;;;;;44.08;21.73;;;;;;;5.38;100.00;95521.34;4965073;28;20045;-61
2021/04/07 00:45:03;;;;;;;49.05;24.48;;;;;;;5.36;100.00;95518.19;4964566;28;20031;-61
2021/04/07 00:47:28;;;;;;;48.35;24.48;;;;;;;5.36;100.00;95518.97;4962751;28;20509;-61
2021/04/07 00:49:53;;;;;;;65.25;32.60;;;;;;;4.82;100.00;95463.03;4964486;28;20034;-61
2021/04/07 00:52:19;;;;;;;66.68;32.40;;;;;;;5.24;100.00;95511.00;4964679;28;20041;-60
2021/04/07 00:54:45;;;;;;;67.82;32.53;;;;;;;5.26;100.00;95518.84;4963544;28;20461;-60
2021/04/07 00:57:11;;;;;;;69.88;31.65;;;;;;;4.69;100.00;95424.84;4964164;28;20035;-61
2021/04/07 00:59:37;;;;;;;67.20;31.92;;;;;;;5.15;100.00;95495.97;4964832;28;20043;-61
2021/04/07 01:02:05;;;;;;;63.88;29.85;;;;;;;5.39;100.00;95503.72;4964653;28;20089;-61
2021/04/07 01:04:31;;;;;;;62.10;29.65;;;;;;;5.32;100.00;95496.19;4962879;28;20057;-62
2021/04/07 01:06:58;;;;;;;68.15;32.47;;;;;;;5.18;100.00;95473.28;4967001;28;20051;-60
2021/04/07 01:09:23;;;;;;;71.95;35.17;;;;;;;5.04;100.00;95468.41;4968369;28;20037;-60
2021/04/07 01:11:48;;;;;;;75.65;36.50;;;;;;;4.60;100.00;95377.72;4967735;28;20031;-62
2021/04/07 01:14:14;;;;;;;80.63;38.22;;;;;;;5.20;100.00;95470.94;4968277;28;20064;-61
2021/04/07 01:16:41;;;;;;;67.38;32.85;;;;;;;5.46;100.00;95506.53;4967599;28;20038;-63
2021/04/07 01:19:08;;;;;;;66.00;30.67;;;;;;;5.36;100.00;95475.06;4966778;28;20046;-61
2021/04/07 01:21:33;;;;;;;64.80;31.77;;;;;;;5.43;100.00;95501.81;4968114;28;20118;-60
2021/04/07 01:23:59;;;;;;;59.45;30.25;;;;;;;5.04;100.00;95501.34;4967926;28;20031;-61
2021/04/07 01:26:25;;;;;;;61.58;30.13;;;;;;;4.93;100.00;95492.19;4965847;28;20130;-61
2021/04/07 01:28:50;;;;;;;45.00;23.23;;;;;;;5.06;100.00;95498.22;4967991;28;20078;-61
2021/04/07 01:31:16;;;;;;;47.00;22.85;;;;;;;4.89;100.00;95480.34;4967670;28;20039;-62
2021/04/07 01:33:42;;;;;;;37.63;19.70;;;;;;;4.98;100.00;95507.53;4966651;28;20038;-61
2021/04/07 01:36:08;;;;;;;38.65;21.45;;;;;;;4.38;100.00;95446.34;4967688;28;20054;-61
2021/04/07 01:38:33;;;;;;;33.80;17.95;;;;;;;4.65;100.00;95500.00;4968232;28;20041;-61
2021/04/07 01:40:59;;;;;;;36.03;20.58;;;;;;;4.65;100.00;95489.81;4966947;28;20073;-61
2021/04/07 01:43:25;;;;;;;42.22;22.48;;;;;;;4.68;100.00;95495.75;4967916;28;20414;-61
2021/04/07 01:45:51;;;;;;;50.15;21.88;;;;;;;4.81;100.00;95497.06;4967264;28;20039;-61
2021/04/07 01:48:18;;;;;;;69.05;22.63;;;;;;;4.84;100.00;95496.34;4967648;28;20046;-63
2021/04/07 01:50:48;;;;;;;46.33;21.48;;;;;;;4.31;100.00;95425.13;4967014;28;20038;-62
2021/04/07 01:53:16;;;;;;;95.40;25.30;;;;;;;4.79;100.00;95475.50;4967610;28;20146;-61
2021/04/07 01:55:42;;;;;;;153.95;39.25;;;;;;;4.60;100.00;95462.72;4967097;28;20133;-61
2021/04/07 01:58:07;;;;;;;100.63;29.70;;;;;;;4.40;100.00;95411.13;4965606;28;20063;-63
2021/04/07 02:00:33;;;;;;;60.67;29.25;;;;;;;4.90;100.00;95495.63;4966595;28;20038;-61
2021/04/07 02:03:03;;;;;;;51.75;27.10;;;;;;;4.73;100.00;95451.53;4965689;28;20042;-62
2021/04/07 02:05:29;;;;;;;67.30;35.13;;;;;;;5.07;100.00;95483.34;4966749;28;20037;-62
2021/04/07 02:07:55;;;;;;;62.80;35.33;;;;;;;5.07;100.00;95494.31;4967245;28;20149;-60
2021/04/07 02:10:21;;;;;;;60.53;32.78;;;;;;;5.10;100.00;95468.84;4967178;28;20505;-61
2021/04/07 02:12:53;;;;;;;64.70;35.10;;;;;;;4.42;100.00;95356.75;4967306;28;20065;-63
2021/04/07 02:15:19;;;;;;;77.10;39.55;;;;;;;5.39;100.00;95503.72;4966208;28;20035;-61
2021/04/07 02:17:46;;;;;;;51.72;28.77;;;;;;;4.58;100.00;95349.88;4966537;28;20185;-60
2021/04/07 02:20:12;;;;;;;44.28;22.55;;;;;;;5.43;100.00;95490.81;4964518;28;20031;-60
2021/04/07 02:22:38;;;;;;;46.33;22.75;;;;;;;5.31;100.00;95493.81;4966848;28;20524;-62
2021/04/07 02:25:06;;;;;;;52.42;24.20;;;;;;;5.33;100.00;95496.97;4966761;28;20523;-60
2021/04/07 02:27:32;;;;;;;44.60;22.35;;;;;;;4.76;100.00;95415.16;4967395;28;20108;-61
2021/04/07 02:29:57;;;;;;;62.60;32.10;;;;;;;5.27;100.00;95491.03;4965388;28;20498;-62
2021/04/07 02:32:25;;;;;;;52.88;25.42;;;;;;;5.15;100.00;95446.59;4966067;28;20035;-61
2021/04/07 02:34:51;;;;;;;41.38;22.85;;;;;;;5.33;100.00;95480.50;4965478;28;20035;-61
2021/04/07 02:37:18;;;;;;;44.65;22.05;;;;;;;4.29;100.00;95312.34;4966358;28;20454;-61
2021/04/07 02:39:45;;;;;;;40.05;20.88;;;;;;;5.31;100.00;95482.84;4966580;28;20027;-61
2021/04/07 02:42:14;;;;;;;45.92;20.73;;;;;;;4.59;100.00;95354.22;4966324;28;20062;-61
2021/04/07 02:44:40;;;;;;;41.75;19.67;;;;;;;4.58;100.00;95330.69;4966440;28;20038;-61
2021/04/07 02:47:09;;;;;;;41.92;21.42;;;;;;;5.34;100.00;95421.72;4965585;28;20073;-60
2021/04/07 02:49:35;;;;;;;49.95;20.77;;;;;;;5.81;100.00;95479.47;4965232;28;20038;-62
2021/04/07 02:52:02;;;;;;;50.20;23.15;;;;;;;4.86;100.00;95307.50;4964496;28;20492;-61
2021/04/07 02:54:27;;;;;;;47.33;22.10;;;;;;;5.53;100.00;95407.78;4966423;28;20073;-64
2021/04/07 02:56:53;;;;;;;55.15;22.88;;;;;;;5.33;100.00;95362.47;4966198;28;20030;-60
2021/04/07 02:59:18;;;;;;;52.70;24.52;;;;;;;6.21;100.00;95484.97;4966670;28;20042;-63
2021/04/07 03:01:44;;;;;;;57.70;22.52;;;;;;;5.98;100.00;95445.88;4965589;28;20039;-61
2021/04/07 03:04:09;;;;;;;91.55;25.25;;;;;;;5.80;100.00;95400.97;4964449;28;20039;-62
2021/04/07 03:06:35;;;;;;;128.10;24.65;;;;;;;6.14;100.00;95476.66;4965456;28;20050;-62
2021/04/07 03:09:01;;;;;;;174.20;26.00;;;;;;;6.24;100.00;95486.94;4966075;28;20433;-61
2021/04/07 03:11:27;;;;;;;111.38;24.23;;;;;;;5.89;100.00;95461.91;4965970;28;20034;-63
2021/04/07 03:13:53;;;;;;;147.80;25.60;;;;;;;6.13;100.00;95469.59;4966414;28;20881;-62
2021/04/07 03:16:19;;;;;;;148.95;27.05;;;;;;;5.62;100.00;95386.28;4965107;28;20038;-61
2021/04/07 03:18:44;;;;;;;162.43;27.10;;;;;;;6.46;100.00;95494.19;4965682;28;20043;-63
2021/04/07 03:21:10;;;;;;;118.07;29.40;;;;;;;6.12;100.00;95446.00;4963910;28;20039;-62
2021/04/07 03:23:35;;;;;;;111.38;25.02;;;;;;;6.35;100.00;95509.81;4965623;28;20031;-62
2021/04/07 03:26:01;;;;;;;77.10;27.30;;;;;;;6.14;100.00;95476.66;4963709;28;20069;-62
2021/04/07 03:28:27;;;;;;;71.85;27.02;;;;;;;6.08;100.00;95458.94;4963518;28;20046;-63
2021/04/07 03:30:53;;;;;;;74.13;26.63;;;;;;;6.33;100.00;95501.16;4965496;28;20031;-63
2021/04/07 03:33:23;;;;;;;64.80;26.25;;;;;;;6.37;100.00;95504.72;4964311;28;20125;-64
2021/04/07 03:35:50;;;;;;;166.90;37.03;;;;;;;6.31;100.00;95478.75;4965048;28;20074;-61
2021/04/07 03:38:16;;;;;;;186.90;36.90;;;;;;;5.64;100.00;95398.44;4965548;28;20373;-61
2021/04/07 03:40:43;;;;;;;92.55;33.65;;;;;;;6.27;100.00;95513.69;4964777;28;20060;-61
2021/04/07 03:43:11;;;;;;;121.97;42.88;;;;;;;6.24;100.00;95513.66;4965459;28;20261;-60
2021/04/07 03:45:37;;;;;;;123.55;40.25;;;;;;;6.27;100.00;95508.19;4964611;28;20042;-62
2021/04/07 03:48:03;;;;;;;213.40;44.05;;;;;;;6.31;100.00;95520.00;4966009;28;20047;-60
2021/04/07 03:50:29;;;;;;;90.57;34.50;;;;;;;6.18;100.00;95482.19;4963065;28;20532;-60
2021/04/07 03:52:54;;;;;;;68.45;34.03;;;;;;;6.06;100.00;95464.00;4965024;28;20038;-61
2021/04/07 03:55:20;;;;;;;74.65;29.60;;;;;;;5.89;100.00;95448.16;4964805;28;20035;-61
2021/04/07 03:57:45;;;;;;;79.18;32.03;;;;;;;6.14;100.00;95479.41;4963795;28;20533;-62
2021/04/07 04:00:12;;;;;;;106.10;34.03;;;;;;;5.95;100.00;95441.16;4964849;28;20124;-62
2021/04/07 04:02:37;;;;;;;129.82;40.97;;;;;;;6.25;100.00;95498.72;4965230;28;20104;-61
2021/04/07 04:05:04;;;;;;;148.93;43.55;;;;;;;6.03;100.00;95478.50;4963211;28;20055;-62
2021/04/07 04:07:30;;;;;;;148.10;38.75;;;;;;;6.20;100.00;95541.09;4964608;28;20137;-61
2021/04/07 04:09:55;;;;;;;198.63;44.03;;;;;;;5.81;100.00;95454.72;4963477;28;20134;-62
2021/04/07 04:12:21;;;;;;;301.50;50.97;;;;;;;6.48;100.00;95535.84;4963315;28;20035;-61
2021/04/07 04:14:46;;;;;;;296.50;49.40;;;;;;;6.56;100.00;95534.72;4963243;28;20041;-62
2021/04/07 04:17:11;;;;;;;286.38;48.90;;;;;;;6.62;100.00;95546.97;4962952;28;20454;-62
2021/04/07 04:19:37;;;;;;;324.23;46.05;;;;;;;6.74;100.00;95548.63;4964799;28;20034;-62
2021/04/07 04:22:04;;;;;;;231.52;40.63;;;;;;;6.02;100.00;95430.22;4963986;28;20415;-62
2021/04/07 04:24:30;;;;;;;354.15;55.75;;;;;;;6.32;100.00;95477.59;4963233;28;20062;-63
2021/04/07 04:26:55;;;;;;;438.55;54.95;;;;;;;6.88;100.00;95555.03;4964309;28;20128;-62
2021/04/07 04:29:21;;;;;;;324.77;54.92;;;;;;;6.95;100.00;95555.09;4964878;28;20128;-64
2021/04/07 04:31:47;;;;;;;241.85;46.90;;;;;;;6.98;100.00;95551.56;4964599;28;20038;-62
2021/04/07 04:34:12;;;;;;;197.50;34.47;;;;;;;5.09;100.00;95261.50;4963755;28;20395;-62
2021/04/07 04:36:38;;;;;;;209.50;35.28;;;;;;;7.12;100.00;95559.91;4964651;28;20039;-61
2021/04/07 04:39:04;;;;;;;155.82;32.75;;;;;;;6.87;100.00;95512.16;4965112;28;20309;-63
2021/04/07 04:41:29;;;;;;;220.88;29.00;;;;;;;7.36;100.00;95550.19;4966742;28;20041;-62
2021/04/07 04:43:54;;;;;;;155.45;34.40;;;;;;;4.78;98.80;95138.56;4968494;28;20030;-63
2021/04/07 04:46:20;;;;;;;128.02;41.45;;;;;;;6.72;99.97;95430.69;4968346;28;20047;-62
2021/04/07 04:48:45;;;;;;;100.85;38.03;;;;;;;6.81;99.72;95475.16;4968830;28;20041;-62
2021/04/07 04:51:11;;;;;;;122.07;34.78;;;;;;;7.09;99.88;95522.13;4968364;28;20387;-61
2021/04/07 04:53:36;;;;;;;69.68;30.23;;;;;;;7.31;97.90;95539.53;4967036;28;20046;-63
2021/04/07 04:56:02;;;;;;;66.45;24.08;;;;;;;6.69;96.47;95461.72;4967597;28;20073;-62
2021/04/07 04:58:27;;;;;;;142.57;56.78;;;;;;;7.27;96.33;95545.03;4968151;28;20425;-61
2021/04/07 05:00:53;;;;;;;124.25;56.65;;;;;;;7.31;97.83;95551.34;4966144;28;20038;-62
2021/04/07 05:03:18;;;;;;;131.88;64.45;;;;;;;6.32;96.83;95373.13;4966644;28;20034;-60
2021/04/07 05:05:44;;;;;;;137.88;62.08;;;;;;;7.07;95.92;95504.41;4968262;28;20041;-62
2021/04/07 05:08:09;;;;;;;126.47;48.90;;;;;;;7.49;96.53;95552.22;4968774;28;20411;-61
2021/04/07 05:10:35;;;;;;;91.88;45.25;;;;;;;7.49;97.89;95546.72;4966438;28;20410;-61
2021/04/07 05:13:00;;;;;;;97.97;48.88;;;;;;;7.52;98.16;95534.91;4968277;28;20061;-61
2021/04/07 05:15:25;;;;;;;81.90;41.03;;;;;;;7.88;97.91;95551.59;4967616;28;20031;-62
2021/04/07 05:17:51;;;;;;;81.63;45.17;;;;;;;8.11;97.59;95565.84;4966496;28;20027;-62
2021/04/07 05:20:16;;;;;;;93.43;49.88;;;;;;;7.28;96.26;95414.44;4967377;28;20031;-62
2021/04/07 05:22:43;;;;;;;79.72;40.83;;;;;;;7.56;93.93;95442.06;4968159;28;20498;-61
2021/04/07 05:25:09;;;;;;;162.90;74.90;;;;;;;8.28;94.31;95576.16;4967583;28;20031;-62
2021/04/07 05:27:34;;;;;;;112.60;53.05;;;;;;;8.40;94.61;95592.31;4968356;28;20045;-61
2021/04/07 05:29:59;;;;;;;120.00;62.65;;;;;;;8.68;94.37;95589.59;4967723;28;20082;-63
2021/04/07 05:32:25;;;;;;;96.05;51.53;;;;;;;8.72;93.79;95584.88;4967470;28;20031;-62
2021/04/07 05:34:50;;;;;;;35.38;22.85;;;;;;;9.01;92.14;95581.72;4968111;28;20037;-61
2021/04/07 05:37:16;;;;;;;36.13;21.88;;;;;;;9.09;91.15;95588.81;4965888;28;20035;-61
2021/04/07 05:39:41;;;;;;;77.85;39.72;;;;;;;9.26;89.98;95592.75;4966249;28;20465;-62
2021/04/07 05:42:07;;;;;;;58.63;32.55;;;;;;;5.52;88.44;95005.31;4963918;28;20505;-67
2021/04/07 05:44:32;;;;;;;81.07;42.08;;;;;;;8.97;89.90;95602.22;4963285;28;20074;-63
2021/04/07 05:46:57;;;;;;;88.18;43.08;;;;;;;7.98;95.30;95598.50;4966375;28;20031;-62
2021/04/07 05:49:26;;;;;;;80.60;41.50;;;;;;;7.87;99.23;95588.59;4966955;28;20027;-61
2021/04/07 05:51:52;;;;;;;74.70;36.70;;;;;;;7.74;100.00;95591.69;4965953;28;20062;-62
2021/04/07 05:54:17;;;;;;;64.93;32.58;;;;;;;7.85;100.00;95607.50;4965344;28;20136;-61
2021/04/07 05:56:42;;;;;;;55.72;30.05;;;;;;;8.01;100.00;95611.50;4964463;28;20413;-62
2021/04/07 05:59:08;;;;;;;51.92;27.42;;;;;;;8.11;99.39;95604.44;4964653;28;20034;-62
2021/04/07 06:01:34;;;;;;;58.28;29.92;;;;;;;8.21;98.38;95609.19;4966756;28;20232;-63
2021/04/07 06:03:59;;;;;;;45.75;25.60;;;;;;;8.54;96.40;95617.16;4966828;28;20031;-62
2021/04/07 06:06:25;;;;;;;40.72;25.73;;;;;;;7.71;95.10;95464.94;4965265;28;20540;-60
2021/04/07 06:08:50;;;;;;;41.92;25.17;;;;;;;8.99;92.18;95619.19;4966259;28;20137;-63
2021/04/07 06:11:17;;;;;;;34.78;22.13;;;;;;;8.67;92.28;95565.94;4965729;28;20077;-62
2021/04/07 06:13:43;;;;;;;45.72;26.40;;;;;;;9.13;91.51;95606.19;4965955;28;20054;-63
2021/04/07 06:16:08;;;;;;;51.00;28.65;;;;;;;9.12;89.36;95587.22;4966182;28;20035;-64
2021/04/07 06:18:34;;;;;;;53.63;29.27;;;;;;;9.70;88.54;95628.97;4966477;28;20411;-62
2021/04/07 06:20:59;;;;;;;60.80;33.25;;;;;;;9.88;89.16;95626.16;4966748;28;20503;-63
2021/04/07 06:23:24;;;;;;;61.40;35.08;;;;;;;10.04;86.96;95621.75;4967210;28;20433;-63
2021/04/07 06:25:50;;;;;;;70.35;38.25;;;;;;;10.09;86.76;95629.66;4964817;28;20035;-63
2021/04/07 06:28:16;;;;;;;94.25;55.50;;;;;;;10.28;87.17;95598.75;4966065;28;20046;-61
2021/04/07 06:30:46;;;;;;;41.53;24.70;;;;;;;9.92;83.08;95486.69;4964368;28;20034;-63
2021/04/07 06:33:17;;;;;;;42.05;26.63;;;;;;;11.05;81.96;95636.22;4965266;28;20035;-64
2021/04/07 06:35:52;;;;;;;36.38;21.85;;;;;;;10.36;83.82;95641.78;4965117;28;20429;-63
2021/04/07 06:38:19;;;;;;;36.60;22.95;;;;;;;10.49;88.72;95636.59;4965951;28;20588;-62
2021/04/07 06:40:46;;;;;;;34.75;21.58;;;;;;;10.23;88.93;95645.41;4964886;28;20073;-62
2021/04/07 06:43:14;;;;;;;33.40;19.98;;;;;;;10.60;86.72;95591.03;4965634;28;20085;-62
2021/04/07 06:45:40;;;;;;;25.77;18.00;;;;;;;11.64;83.02;95645.22;4964892;28;20118;-63
2021/04/07 06:48:07;;;;;;;23.42;16.13;;;;;;;11.47;82.03;95585.97;4964322;28;20046;-65
2021/04/07 06:50:33;;;;;;;25.52;16.33;;;;;;;12.14;77.14;95657.38;4964606;28;20054;-64
2021/04/07 06:53:01;;;;;;;20.10;14.20;;;;;;;11.93;72.65;95652.06;4965045;28;20497;-60
2021/04/07 06:55:27;;;;;;;63.83;40.78;;;;;;;11.82;77.18;95601.47;4964584;28;20034;-62
2021/04/07 06:57:54;;;;;;;37.05;23.55;;;;;;;12.02;76.05;95574.66;4965100;28;20035;-63
2021/04/07 07:00:21;;;;;;;36.38;22.50;;;;;;;12.84;75.07;95656.47;4963229;28;20588;-61
2021/04/07 07:02:47;;;;;;;20.25;15.35;;;;;;;12.67;71.59;95657.50;4965362;28;20477;-67
2021/04/07 07:05:15;;;;;;;28.98;19.25;;;;;;;12.35;74.66;95600.81;4963495;28;20034;-66
2021/04/07 07:07:41;;;;;;;24.05;17.67;;;;;;;13.24;69.95;95630.50;4965341;28;20134;-61
2021/04/07 07:10:07;;;;;;;22.80;15.75;;;;;;;13.37;69.24;95667.59;4964260;28;20621;-64
2021/04/07 07:12:32;;;;;;;21.33;15.55;;;;;;;12.75;72.07;95520.06;4965334;28;20038;-62
2021/04/07 07:15:03;;;;;;;24.58;18.85;;;;;;;13.89;69.37;95665.16;4964991;28;20026;-62
2021/04/07 07:17:31;;;;;;;23.10;16.48;;;;;;;14.24;66.39;95674.84;4964505;28;20027;-64
2021/04/07 07:19:57;;;;;;;20.65;13.23;;;;;;;14.02;64.16;95668.09;4963785;28;20069;-66
2021/04/07 07:22:25;;;;;;;17.05;14.32;;;;;;;13.56;67.70;95669.69;4962766;28;20039;-59
2021/04/07 07:24:53;;;;;;;25.15;15.95;;;;;;;13.65;66.10;95649.66;4964534;28;20042;-61
2021/04/07 07:27:19;;;;;;;44.97;22.40;;;;;;;12.66;68.07;95655.94;4965006;28;20486;-60
2021/04/07 07:29:54;;;;;;;31.73;17.65;;;;;;;12.35;67.85;95562.72;4964244;28;20458;-66
2021/04/07 07:32:19;;;;;;;30.67;17.60;;;;;;;13.30;65.64;95620.47;4960645;28;20489;-63
2021/04/07 07:34:45;;;;;;;19.08;14.30;;;;;;;13.82;66.70;95665.25;4964228;28;20045;-62
2021/04/07 07:37:22;;;;;;;18.33;12.43;;;;;;;12.64;67.18;95624.22;4963555;28;20039;-61
2021/04/07 07:39:47;;;;;;;20.90;14.85;;;;;;;13.38;67.71;95673.97;4972450;28;20410;-61
2021/04/07 07:42:12;;;;;;;23.88;16.20;;;;;;;14.06;65.56;95691.06;4976064;28;20061;-63
2021/04/07 07:44:39;;;;;;;21.05;15.32;;;;;;;13.16;63.88;95590.13;4965157;28;20043;-60
2021/04/07 07:49:38;;;;;;;18.45;13.57;;;;;;;12.03;68.86;95674.16;4964355;28;20090;-61
2021/04/07 07:52:04;;;;;;;21.75;15.05;;;;;;;12.25;68.97;95698.91;4962579;28;20150;-62
2021/04/07 07:54:29;;;;;;;20.83;15.20;;;;;;;11.69;70.15;95714.13;4960909;28;20062;-62
2021/04/07 07:56:56;;;;;;;19.23;11.48;;;;;;;10.63;70.84;95615.16;4964029;28;20077;-63
2021/04/07 07:59:27;;;;;;;20.50;12.15;;;;;;;10.68;73.54;95706.06;4963585;28;20101;-67
2021/04/07 08:01:52;;;;;;;20.70;14.10;;;;;;;10.99;75.94;95720.16;4963953;28;20501;-62
2021/04/07 08:04:18;;;;;;;22.15;14.82;;;;;;;11.24;76.47;95720.81;4959732;28;20045;-60
2021/04/07 08:06:44;;;;;;;23.92;15.60;;;;;;;11.49;76.39;95721.41;4963781;28;20117;-64
2021/04/07 08:09:10;;;;;;;23.15;16.67;;;;;;;11.24;79.78;95773.47;4962589;28;20046;-62
2021/04/07 08:11:36;;;;;;;28.38;17.10;;;;;;;11.37;77.51;95719.09;4963700;28;20391;-61
2021/04/07 08:14:03;;;;;;;22.75;15.95;;;;;;;11.53;77.12;95722.94;4963623;28;20035;-60
2021/04/07 08:16:29;;;;;;;26.30;17.13;;;;;;;11.39;78.33;95694.53;4958529;28;20097;-61
2021/04/07 08:18:58;;;;;;;24.02;16.50;;;;;;;12.06;74.19;95751.03;4959840;28;20117;-61
2021/04/07 08:21:23;;;;;;;28.65;17.77;;;;;;;11.74;72.89;95666.53;4964672;28;20473;-60
2021/04/07 08:23:57;;;;;;;27.42;18.20;;;;;;;12.47;74.60;95741.91;4965259;28;20034;-62
2021/04/07 08:26:26;;;;;;;19.00;12.55;;;;;;;11.97;71.38;95741.59;4963726;28;20038;-64
2021/04/07 08:28:52;;;;;;;18.42;11.30;;;;;;;11.11;73.67;95756.50;4963073;28;20030;-63
2021/04/07 08:31:18;;;;;;;17.75;12.43;;;;;;;11.19;74.00;95752.50;4963328;28;20403;-65
2021/04/07 08:33:52;;;;;;;18.90;12.50;;;;;;;11.32;69.87;95733.41;4963780;28;20035;-63
2021/04/07 08:36:19;;;;;;;17.10;10.48;;;;;;;10.80;69.80;95712.34;4963184;28;20482;-64
2021/04/07 08:38:45;;;;;;;37.65;22.77;;;;;;;10.77;72.25;95774.09;4963959;28;20034;-69
2021/04/07 08:41:12;;;;;;;43.28;29.50;;;;;;;10.45;73.85;95766.69;4961802;28;20031;-66
2021/04/07 08:43:39;;;;;;;22.15;15.95;;;;;;;10.62;72.09;95790.75;4964237;28;20045;-63
2021/04/07 08:46:13;;;;;;;16.55;11.90;;;;;;;10.62;71.95;95796.31;4964143;28;20038;-63
2021/04/07 08:48:38;;;;;;;17.27;11.25;;;;;;;7.99;70.24;95381.47;4963836;28;20090;-63
2021/04/07 08:51:05;;;;;;;19.92;13.63;;;;;;;10.57;72.11;95777.31;4963807;28;20553;-62
2021/04/07 08:53:32;;;;;;;17.08;11.68;;;;;;;10.48;74.25;95773.41;4960271;28;20047;-67
2021/04/07 08:56:06;;;;;;;18.60;11.00;;;;;;;10.30;74.65;95784.56;4962685;28;20101;-67
2021/04/07 08:58:31;;;;;;;18.85;12.57;;;;;;;9.88;74.82;95754.16;4963296;28;20470;-60
2021/04/07 09:00:57;;;;;;;23.05;12.07;;;;;;;10.21;74.63;95789.69;4963140;28;20027;-60
2021/04/07 09:03:25;;;;;;;17.50;12.00;;;;;;;9.92;77.15;95790.91;4965433;28;20046;-61
2021/04/07 09:05:52;;;;;;;22.50;14.52;;;;;;;10.09;77.00;95812.25;4964520;28;20461;-61
2021/04/07 09:08:24;;;;;;;18.30;11.32;;;;;;;10.02;76.75;95801.16;4964267;28;20063;-62
2021/04/07 09:10:58;;;;;;;21.20;13.43;;;;;;;9.60;79.59;95718.25;4968042;28;20370;-62
2021/04/07 09:13:24;;;;;;;21.48;14.02;;;;;;;10.28;79.18;95886.53;4965001;28;20479;-65
2021/04/07 09:15:53;;;;;;;18.13;13.35;;;;;;;9.57;79.25;95674.00;4963786;28;20116;-64
2021/04/07 09:18:44;;;;;;;17.23;11.43;;;;;;;10.46;76.96;95806.25;4964437;28;20034;-65
2021/04/07 09:21:15;;;;;;;25.65;15.38;;;;;;;10.55;78.23;95806.63;4963395;28;20038;-60
2021/04/07 09:23:43;;;;;;;18.95;9.75;;;;;;;9.82;76.09;95775.09;4944833;29;20043;-60
2021/04/07 09:26:18;;;;;;;15.00;10.35;;;;;;;9.90;76.92;95804.31;4945381;28;20046;-59
2021/04/07 09:28:51;;;;;;;16.50;10.13;;;;;;;9.31;77.16;95738.75;4957091;28;20469;-63
2021/04/07 09:31:19;;;;;;;12.83;8.60;;;;;;;9.39;77.60;95798.38;4966650;28;20117;-61
2021/04/07 09:33:50;;;;;;;16.63;11.50;;;;;;;9.91;79.46;95819.72;4966987;28;20520;-62
2021/04/07 09:36:20;;;;;;;23.35;13.93;;;;;;;9.78;79.46;95779.84;4966053;28;20490;-64
2021/04/07 09:38:50;;;;;;;18.40;9.98;;;;;;;10.23;76.86;95833.56;4964204;28;20034;-61
2021/04/07 09:41:29;;;;;;;41.42;17.08;;;;;;;10.42;78.07;95853.31;4964829;28;20038;-62
2021/04/07 09:43:59;;;;;;;18.23;9.82;;;;;;;10.73;76.43;95839.78;4967440;28;20173;-62
2021/04/07 09:46:25;;;;;;;17.67;10.20;;;;;;;11.07;73.30;95838.88;4967043;28;20442;-62
2021/04/07 09:48:52;;;;;;;12.35;8.00;;;;;;;10.07;72.11;95845.03;4967379;28;20046;-61
2021/04/07 09:51:26;;;;;;;12.77;7.57;;;;;;;9.88;74.61;95850.94;4967018;28;20106;-60
2021/04/07 09:53:53;;;;;;;9.45;7.32;;;;;;;9.70;72.38;95855.69;4967340;28;20516;-60
2021/04/07 09:56:19;;;;;;;13.35;8.32;;;;;;;9.63;75.20;95850.13;4966095;28;20049;-62
2021/04/07 09:58:50;;;;;;;11.05;7.90;;;;;;;9.46;74.87;95828.78;4964847;28;20031;-61
2021/04/07 10:01:16;;;;;;;16.13;10.35;;;;;;;9.77;76.16;95849.38;4967180;28;20507;-61
2021/04/07 10:03:52;;;;;;;9.27;6.18;;;;;;;9.49;72.71;95849.31;4976472;28;20094;-60
2021/04/07 10:06:25;;;;;;;19.42;10.85;;;;;;;9.62;73.05;95843.03;4974154;28;20561;-59
2021/04/07 10:09:08;;;;;;;16.85;9.10;;;;;;;9.85;71.21;95850.94;4971341;28;20066;-63
2021/04/07 10:11:42;;;;;;;10.30;5.47;;;;;;;9.47;71.24;95857.22;4957737;28;20046;-62
2021/04/07 10:14:10;;;;;;;11.18;7.93;;;;;;;9.60;73.88;95856.47;4964357;28;20038;-65
2021/04/07 10:16:37;;;;;;;9.98;6.85;;;;;;;9.59;72.06;95857.66;4966294;28;20038;-61
2021/04/07 10:19:10;;;;;;;9.35;6.10;;;;;;;9.50;75.05;95868.28;4990792;28;20049;-62
2021/04/07 10:21:36;;;;;;;11.32;8.23;;;;;;;9.75;74.05;95871.09;4997347;28;20038;-59
2021/04/07 10:24:04;;;;;;;16.00;9.88;;;;;;;9.68;76.25;95854.47;5004357;28;20061;-60
2021/04/07 10:26:30;;;;;;;26.55;18.15;;;;;;;9.75;75.88;95788.94;5002913;28;20037;-62
2021/04/07 10:29:00;;;;;;;16.48;11.60;;;;;;;10.36;73.25;95874.28;5002918;28;20068;-64
2021/04/07 10:31:28;;;;;;;19.27;11.35;;;;;;;10.43;75.50;95943.47;5003353;28;20413;-61
2021/04/07 10:34:03;;;;;;;18.48;11.63;;;;;;;10.34;74.13;95884.97;5003959;28;20092;-60
2021/04/07 10:36:29;;;;;;;16.30;10.48;;;;;;;9.73;73.00;95766.41;5003289;28;20046;-61
2021/04/07 10:38:57;;;;;;;19.63;13.15;;;;;;;10.57;74.67;95895.63;5020149;28;20034;-64
2021/04/07 10:41:27;;;;;;;14.32;10.00;;;;;;;10.63;73.31;95892.03;5002942;28;20169;-59
2021/04/07 10:43:52;;;;;;;13.80;9.45;;;;;;;10.12;73.53;95843.84;5003731;28;20505;-58
2021/04/07 10:46:29;;;;;;;13.82;10.23;;;;;;;10.45;73.09;95884.94;5003886;28;20113;-62
2021/04/07 10:48:57;;;;;;;14.80;10.20;;;;;;;10.62;76.34;95907.06;5017188;28;20401;-65
2021/04/07 10:51:22;;;;;;;19.17;11.13;;;;;;;10.23;77.44;95862.03;5000819;28;20399;-70
2021/04/07 10:53:55;;;;;;;26.10;14.43;;;;;;;10.43;79.88;95915.00;4985973;28;20064;-62
2021/04/07 10:56:24;;;;;;;29.38;15.35;;;;;;;10.39;82.35;95898.41;4998430;28;20045;-62
2021/04/07 10:58:57;;;;;;;19.83;12.65;;;;;;;10.37;82.47;95920.16;5003542;28;20431;-61
2021/04/07 11:01:30;;;;;;;10.90;8.57;;;;;;;10.50;80.98;95907.47;4999860;28;20069;-61
2021/04/07 11:03:55;;;;;;;25.05;12.90;;;;;;;10.10;82.07;95902.34;5002669;28;20064;-60
2021/04/07 11:06:22;;;;;;;17.80;10.95;;;;;;;10.21;82.29;95944.66;4987308;28;20038;-61
2021/04/07 11:08:53;;;;;;;17.45;12.20;;;;;;;10.32;80.78;95928.84;4992885;28;20050;-59
2021/04/07 11:11:26;;;;;;;14.45;9.30;;;;;;;9.90;77.54;95859.66;4999630;28;20409;-60
2021/04/07 11:13:54;;;;;;;9.68;8.23;;;;;;;10.41;73.49;95936.75;4997729;28;20057;-58
2021/04/07 11:16:30;;;;;;;9.07;6.25;;;;;;;9.44;74.10;95886.44;5000652;28;20547;-60
2021/04/07 11:18:55;;;;;;;16.90;10.20;;;;;;;9.96;77.70;95929.97;5001569;28;20063;-60
2021/04/07 11:21:21;;;;;;;13.77;9.23;;;;;;;10.31;77.55;95930.03;5002279;28;20042;-59